Time;durP1;ratioP1;P1;durP2;ratioP2;P2;SDS_P1;SDS_P2;PMS_P1;PMS_P2;Temp;Humidity;BMP_temperature;BMP_pressure;BME280_temperature;BME280_humidity;BME280_pressure;Samples;Min_cycle;Max_cycle;Signal;HPM_P1;HPM_P2
2022/12/04 00:00:16;;;;;;;12.95;9.00;;;;;;;;;;5076354;28;20240;-84
2022/12/04 00:02:43;;;;;;;12.57;8.85;;;;;;;;;;5076681;28;20236;-85
2022/12/04 00:05:11;;;;;;;14.32;11.00;;;;;;;;;;5075794;28;20201;-84
2022/12/04 00:07:38;;;;;;;15.60;10.98;;;;;;;;;;5074978;28;20320;-84
2022/12/04 00:10:07;;;;;;;17.70;11.52;;;;;;;;;;5075165;28;20228;-82
2022/12/04 00:12:36;;;;;;;14.73;11.35;;;;;;;;;;5075749;28;20312;-82
2022/12/04 00:15:05;;;;;;;15.98;11.73;;;;;;;;;;5075745;28;20201;-84
2022/12/04 00:17:32;;;;;;;16.92;11.40;;;;;;;;;;5075661;28;20316;-85
2022/12/04 00:19:59;;;;;;;15.18;11.07;;;;;;;;;;5075231;28;20204;-85
2022/12/04 00:22:27;;;;;;;14.52;10.13;;;;;;;;;;5075307;28;20264;-84
2022/12/04 00:24:54;;;;;;;14.40;9.63;;;;;;;;;;5076075;28;20274;-83
2022/12/04 00:27:22;;;;;;;12.18;8.80;;;;;;;;;;5075505;28;20220;-84
2022/12/04 00:29:51;;;;;;;13.60;9.38;;;;;;;;;;5075368;28;20251;-83
2022/12/04 00:32:18;;;;;;;13.65;9.68;;;;;;;;;;5077891;28;20260;-83
2022/12/04 00:34:46;;;;;;;11.30;9.20;;;;;;;;;;5079461;28;20196;-85
2022/12/04 00:37:13;;;;;;;13.20;9.95;;;;;;;;;;5079444;28;20776;-84
2022/12/04 00:39:41;;;;;;;12.15;8.55;;;;;;;;;;5079616;28;20288;-83
2022/12/04 00:42:08;;;;;;;10.95;8.18;;;;;;;;;;5079483;28;20242;-84
2022/12/04 00:44:36;;;;;;;16.13;10.48;;;;;;;;;;5079377;28;20211;-85
2022/12/04 00:47:05;;;;;;;11.15;8.38;;;;;;;;;;5079465;28;20305;-84
2022/12/04 00:49:32;;;;;;;9.13;8.23;;;;;;;;;;5079690;28;20283;-84
2022/12/04 00:52:00;;;;;;;12.63;8.13;;;;;;;;;;5079101;28;20311;-83
2022/12/04 00:54:27;;;;;;;10.27;7.60;;;;;;;;;;5079293;28;20240;-83
2022/12/04 00:56:55;;;;;;;9.88;7.40;;;;;;;;;;5079102;28;20252;-84
2022/12/04 00:59:22;;;;;;;12.63;7.75;;;;;;;;;;5079313;28;20239;-85
2022/12/04 01:01:50;;;;;;;13.15;9.15;;;;;;;;;;5078918;28;20238;-84
2022/12/04 01:04:18;;;;;;;12.32;9.25;;;;;;;;;;5078852;28;20554;-84
2022/12/04 01:06:47;;;;;;;10.88;8.95;;;;;;;;;;5079150;28;20616;-85
2022/12/04 01:09:15;;;;;;;7.60;6.78;;;;;;;;;;5079198;28;20221;-84
2022/12/04 01:11:42;;;;;;;8.10;7.18;;;;;;;;;;5079469;28;20308;-84
2022/12/04 01:14:10;;;;;;;10.50;7.70;;;;;;;;;;5079030;28;20260;-83
2022/12/04 01:16:39;;;;;;;10.02;6.85;;;;;;;;;;5078921;28;20704;-84
2022/12/04 01:19:11;;;;;;;11.27;7.82;;;;;;;;;;5078422;28;20213;-84
2022/12/04 01:21:40;;;;;;;7.70;6.63;;;;;;;;;;5078632;28;20211;-85
2022/12/04 01:24:08;;;;;;;11.55;8.80;;;;;;;;;;5078185;28;20278;-84
2022/12/04 01:26:36;;;;;;;9.07;7.88;;;;;;;;;;5077993;28;20290;-85
2022/12/04 01:29:04;;;;;;;10.35;7.80;;;;;;;;;;5078376;28;20236;-85
2022/12/04 01:31:31;;;;;;;12.23;8.45;;;;;;;;;;5078488;28;20256;-85
2022/12/04 01:33:59;;;;;;;13.82;9.75;;;;;;;;;;5078336;28;20233;-85
2022/12/04 01:36:28;;;;;;;10.68;8.43;;;;;;;;;;5078894;28;20252;-84
2022/12/04 01:38:58;;;;;;;8.32;6.80;;;;;;;;;;5078811;28;20706;-84
2022/12/04 01:41:28;;;;;;;11.73;7.75;;;;;;;;;;5077901;28;20291;-83
2022/12/04 01:44:15;;;;;;;11.27;8.82;;;;;;;;;;5077820;28;20653;-85
2022/12/04 01:46:43;;;;;;;8.45;6.82;;;;;;;;;;5078458;28;20240;-83
2022/12/04 01:49:15;;;;;;;10.23;8.07;;;;;;;;;;5078204;28;20287;-85
2022/12/04 01:51:46;;;;;;;12.32;10.18;;;;;;;;;;5078429;28;20209;-85
2022/12/04 01:54:21;;;;;;;10.73;8.43;;;;;;;;;;5078596;28;20217;-85
2022/12/04 01:56:53;;;;;;;10.50;8.77;;;;;;;;;;5078102;28;20220;-86
2022/12/04 01:59:26;;;;;;;11.65;9.18;;;;;;;;;;5078854;28;20192;-84
2022/12/04 02:01:59;;;;;;;12.93;10.38;;;;;;;;;;5078807;28;20648;-84
2022/12/04 02:04:27;;;;;;;8.68;6.72;;;;;;;;;;5077973;28;20334;-84
2022/12/04 02:06:54;;;;;;;13.80;9.65;;;;;;;;;;5078418;28;20225;-84
2022/12/04 02:09:24;;;;;;;11.82;9.55;;;;;;;;;;5078005;28;20236;-84
2022/12/04 02:12:01;;;;;;;10.75;9.65;;;;;;;;;;5077741;28;20221;-85
2022/12/04 02:14:37;;;;;;;13.55;9.45;;;;;;;;;;5078498;28;20216;-84
2022/12/04 02:17:13;;;;;;;13.68;9.77;;;;;;;;;;5077576;28;20374;-85
2022/12/04 02:19:55;;;;;;;11.80;7.85;;;;;;;;;;5077624;28;20192;-84
2022/12/04 02:22:37;;;;;;;11.75;9.38;;;;;;;;;;5078002;28;20815;-84
2022/12/04 02:25:11;;;;;;;9.73;7.82;;;;;;;;;;5077652;28;20213;-85
2022/12/04 02:28:05;;;;;;;11.32;8.98;;;;;;;;;;5077405;28;20328;-84
2022/12/04 02:30:35;;;;;;;12.25;8.95;;;;;;;;;;5077113;28;20690;-84
2022/12/04 02:33:05;;;;;;;9.85;7.85;;;;;;;;;;5077161;28;20307;-84
2022/12/04 02:35:37;;;;;;;10.32;9.20;;;;;;;;;;5077012;28;20212;-84
2022/12/04 02:38:10;;;;;;;11.70;8.02;;;;;;;;;;5077237;28;20301;-85
2022/12/04 02:40:45;;;;;;;10.70;7.57;;;;;;;;;;5057409;28;20284;-83
2022/12/04 02:43:17;;;;;;;12.52;8.40;;;;;;;;;;5057620;28;20197;-85
2022/12/04 02:45:48;;;;;;;9.95;7.78;;;;;;;;;;5057303;28;20217;-85
2022/12/04 02:48:19;;;;;;;8.30;6.95;;;;;;;;;;5057046;28;20805;-84
2022/12/04 02:50:49;;;;;;;9.15;7.45;;;;;;;;;;5057159;28;20276;-84
2022/12/04 02:53:19;;;;;;;10.63;7.78;;;;;;;;;;5057043;28;20234;-85
2022/12/04 02:55:51;;;;;;;13.10;8.82;;;;;;;;;;5056614;28;20225;-84
2022/12/04 02:58:25;;;;;;;12.57;8.18;;;;;;;;;;5056753;28;20308;-84
2022/12/04 03:00:54;;;;;;;12.35;7.85;;;;;;;;;;5056480;28;20228;-84
2022/12/04 03:03:25;;;;;;;13.95;9.23;;;;;;;;;;5057238;28;20229;-85
2022/12/04 03:05:57;;;;;;;12.48;8.23;;;;;;;;;;5056936;28;20185;-84
2022/12/04 03:08:29;;;;;;;12.02;8.05;;;;;;;;;;5056570;28;20221;-85
2022/12/04 03:11:00;;;;;;;11.60;8.38;;;;;;;;;;5056854;28;20190;-84
2022/12/04 03:13:33;;;;;;;12.00;8.75;;;;;;;;;;5056962;28;20226;-84
2022/12/04 03:16:06;;;;;;;12.73;8.82;;;;;;;;;;5056799;28;20208;-85
2022/12/04 03:18:38;;;;;;;9.23;7.15;;;;;;;;;;5103943;22;20260;-84
2022/12/04 03:21:10;;;;;;;11.73;8.48;;;;;;;;;;5097699;28;20197;-84
2022/12/04 03:23:43;;;;;;;9.30;7.20;;;;;;;;;;5100891;28;20622;-84
2022/12/04 03:26:16;;;;;;;12.82;9.40;;;;;;;;;;5101231;28;20181;-83
2022/12/04 03:28:53;;;;;;;12.77;9.63;;;;;;;;;;5085702;28;20268;-85
2022/12/04 03:31:26;;;;;;;13.20;9.18;;;;;;;;;;5080081;28;20272;-83
2022/12/04 03:33:57;;;;;;;11.18;8.88;;;;;;;;;;5081332;28;20292;-84
2022/12/04 03:36:27;;;;;;;14.50;9.32;;;;;;;;;;5081376;28;20315;-85
2022/12/04 03:38:59;;;;;;;12.00;8.65;;;;;;;;;;5080870;28;20302;-84
2022/12/04 03:41:31;;;;;;;12.48;9.27;;;;;;;;;;5080275;28;20283;-85
2022/12/04 03:44:08;;;;;;;12.38;9.05;;;;;;;;;;5079928;28;20217;-86
2022/12/04 03:46:40;;;;;;;11.73;9.45;;;;;;;;;;5080343;28;20203;-85
2022/12/04 03:49:13;;;;;;;12.13;9.07;;;;;;;;;;5079851;28;20294;-85
2022/12/04 03:51:47;;;;;;;11.00;8.90;;;;;;;;;;5079848;28;20761;-84
2022/12/04 03:54:18;;;;;;;12.68;8.55;;;;;;;;;;5079934;28;20205;-84
2022/12/04 03:56:49;;;;;;;13.18;8.95;;;;;;;;;;5080717;28;20264;-85
2022/12/04 03:59:23;;;;;;;14.38;10.18;;;;;;;;;;5079612;28;20221;-84
2022/12/04 04:01:52;;;;;;;12.85;8.48;;;;;;;;;;5079965;28;20276;-85
2022/12/04 04:04:25;;;;;;;11.98;8.57;;;;;;;;;;5079676;28;20544;-85
2022/12/04 04:06:56;;;;;;;12.07;8.77;;;;;;;;;;5080516;28;20169;-85
2022/12/04 04:09:29;;;;;;;13.77;9.27;;;;;;;;;;5081141;28;20201;-85
2022/12/04 04:12:03;;;;;;;13.65;8.52;;;;;;;;;;5080565;28;20215;-84
2022/12/04 04:25:53;;;;;;;11.85;9.88;;;;;;;;;;5081147;28;20231;-85
2022/12/04 04:28:31;;;;;;;12.02;9.02;;;;;;;;;;5080967;28;20853;-86
2022/12/04 04:31:08;;;;;;;11.43;8.65;;;;;;;;;;5080836;28;20212;-86
2022/12/04 04:33:43;;;;;;;10.55;8.27;;;;;;;;;;5079784;28;20287;-85
2022/12/04 04:36:18;;;;;;;11.38;9.45;;;;;;;;;;5081117;28;20204;-85
2022/12/04 04:38:54;;;;;;;13.32;9.10;;;;;;;;;;5081547;28;20228;-84
2022/12/04 04:41:28;;;;;;;12.15;9.63;;;;;;;;;;5079344;28;20185;-86
2022/12/04 04:43:59;;;;;;;12.77;9.32;;;;;;;;;;5080933;28;20672;-84
2022/12/04 04:46:32;;;;;;;11.10;8.48;;;;;;;;;;5081963;28;20224;-83
2022/12/04 04:49:03;;;;;;;12.65;9.32;;;;;;;;;;5081190;28;20758;-84
2022/12/04 04:51:32;;;;;;;12.98;8.05;;;;;;;;;;5080862;28;20561;-85
2022/12/04 04:54:03;;;;;;;13.05;9.20;;;;;;;;;;5080420;28;20282;-85
2022/12/04 04:56:31;;;;;;;13.13;9.77;;;;;;;;;;5080847;28;20279;-84
2022/12/04 04:58:59;;;;;;;18.45;10.50;;;;;;;;;;5080723;28;20247;-85
2022/12/04 05:01:30;;;;;;;12.40;8.65;;;;;;;;;;5080623;28;20228;-85
2022/12/04 05:03:57;;;;;;;11.85;8.63;;;;;;;;;;5080039;28;20196;-84
2022/12/04 05:06:25;;;;;;;12.35;10.15;;;;;;;;;;5081117;28;20243;-85
2022/12/04 05:08:52;;;;;;;13.95;9.77;;;;;;;;;;5079480;28;20263;-85
2022/12/04 05:11:20;;;;;;;14.23;9.80;;;;;;;;;;5079802;28;20269;-85
2022/12/04 05:13:47;;;;;;;12.18;9.07;;;;;;;;;;5080880;28;20224;-85
2022/12/04 05:16:16;;;;;;;13.60;9.05;;;;;;;;;;5080458;28;20212;-83
2022/12/04 05:19:52;;;;;;;13.40;9.55;;;;;;;;;;5079952;28;20274;-85
2022/12/04 05:21:32;;;;;;;12.90;8.85;;;;;;;;;;5083796;28;20247;-85
2022/12/04 05:23:59;;;;;;;11.45;8.55;;;;;;;;;;5083848;28;20201;-83
2022/12/04 05:26:27;;;;;;;14.13;9.25;;;;;;;;;;5082477;28;20201;-86
2022/12/04 05:28:55;;;;;;;13.02;8.60;;;;;;;;;;5083055;28;20740;-86
2022/12/04 05:31:23;;;;;;;9.77;6.97;;;;;;;;;;5083711;28;20197;-84
2022/12/04 05:33:52;;;;;;;11.43;8.20;;;;;;;;;;5083310;28;20339;-85
2022/12/04 05:36:19;;;;;;;10.25;8.32;;;;;;;;;;5084314;28;20344;-85
2022/12/04 05:38:47;;;;;;;9.05;7.72;;;;;;;;;;5083633;28;20744;-85
2022/12/04 05:41:14;;;;;;;13.18;7.80;;;;;;;;;;5084051;28;20201;-84
2022/12/04 05:43:42;;;;;;;8.50;7.13;;;;;;;;;;5083318;28;20201;-84
2022/12/04 05:46:10;;;;;;;11.93;8.98;;;;;;;;;;5082704;28;20197;-84
2022/12/04 05:48:38;;;;;;;12.05;8.15;;;;;;;;;;5082790;28;20274;-84
2022/12/04 05:51:11;;;;;;;10.07;7.80;;;;;;;;;;5083747;28;20344;-84
2022/12/04 05:53:39;;;;;;;9.90;7.65;;;;;;;;;;5083599;28;20251;-84
2022/12/04 05:56:08;;;;;;;11.30;8.32;;;;;;;;;;5082002;28;20297;-82
2022/12/04 05:58:36;;;;;;;11.82;8.30;;;;;;;;;;5082685;28;20643;-84
2022/12/04 06:01:10;;;;;;;10.55;8.25;;;;;;;;;;5083360;28;20224;-84
2022/12/04 06:03:38;;;;;;;12.82;8.73;;;;;;;;;;5082292;28;20227;-84
2022/12/04 06:06:12;;;;;;;11.50;8.93;;;;;;;;;;5084729;28;20220;-84
2022/12/04 06:08:40;;;;;;;13.40;9.60;;;;;;;;;;5084321;28;20307;-84
2022/12/04 06:11:11;;;;;;;13.25;10.18;;;;;;;;;;5083265;28;20625;-84
2022/12/04 06:13:41;;;;;;;12.18;9.07;;;;;;;;;;5083284;28;20681;-83
2022/12/04 06:16:14;;;;;;;14.98;10.45;;;;;;;;;;5082120;28;20296;-83
2022/12/04 06:18:42;;;;;;;14.30;9.80;;;;;;;;;;5082010;28;20224;-83
2022/12/04 06:21:10;;;;;;;10.77;8.82;;;;;;;;;;5082498;28;20719;-85
2022/12/04 06:23:39;;;;;;;12.20;8.90;;;;;;;;;;5081769;28;20212;-83
2022/12/04 06:26:08;;;;;;;10.57;8.77;;;;;;;;;;5080611;28;20723;-83
2022/12/04 06:28:36;;;;;;;9.98;7.65;;;;;;;;;;5080164;28;20228;-84
2022/12/04 06:31:06;;;;;;;10.10;7.35;;;;;;;;;;5080413;28;20240;-84
2022/12/04 06:33:33;;;;;;;11.30;8.55;;;;;;;;;;5080937;28;20367;-84
2022/12/04 06:36:03;;;;;;;9.15;7.32;;;;;;;;;;5081070;28;20256;-86
2022/12/04 06:38:31;;;;;;;16.08;10.25;;;;;;;;;;5080988;28;20240;-84
2022/12/04 06:41:03;;;;;;;13.65;10.32;;;;;;;;;;5081401;28;20255;-85
2022/12/04 06:43:30;;;;;;;12.38;9.18;;;;;;;;;;5080699;28;20288;-84
2022/12/04 06:46:01;;;;;;;11.00;9.15;;;;;;;;;;5081175;28;20224;-85
2022/12/04 06:48:29;;;;;;;11.57;8.75;;;;;;;;;;5080225;28;20285;-84
2022/12/04 06:51:00;;;;;;;11.60;8.68;;;;;;;;;;5080733;28;20245;-84
2022/12/04 06:53:29;;;;;;;12.30;8.38;;;;;;;;;;5081409;28;20254;-83
2022/12/04 06:55:59;;;;;;;13.25;9.65;;;;;;;;;;5081271;28;20217;-83
2022/12/04 06:58:27;;;;;;;12.98;9.13;;;;;;;;;;5080442;28;20259;-83
2022/12/04 07:00:55;;;;;;;9.35;7.07;;;;;;;;;;5080982;28;20673;-84
2022/12/04 07:03:23;;;;;;;10.23;8.20;;;;;;;;;;5080623;28;20264;-85
2022/12/04 07:05:51;;;;;;;14.70;9.50;;;;;;;;;;5081203;28;20269;-84
2022/12/04 07:08:19;;;;;;;8.40;7.20;;;;;;;;;;5080219;28;20225;-85
2022/12/04 07:10:47;;;;;;;10.70;8.30;;;;;;;;;;5080864;28;20235;-84
2022/12/04 07:13:16;;;;;;;13.93;9.68;;;;;;;;;;5080402;28;20224;-84
2022/12/04 07:15:43;;;;;;;10.95;8.68;;;;;;;;;;5080169;28;20702;-84
2022/12/04 07:18:11;;;;;;;9.50;7.85;;;;;;;;;;5079656;28;20283;-85
2022/12/04 07:20:40;;;;;;;11.95;9.27;;;;;;;;;;5080876;28;20944;-85
2022/12/04 07:23:08;;;;;;;14.50;9.40;;;;;;;;;;5079990;28;20199;-85
2022/12/04 07:25:40;;;;;;;13.50;9.48;;;;;;;;;;5079738;28;20270;-84
2022/12/04 07:28:07;;;;;;;14.98;10.10;;;;;;;;;;5079338;28;20217;-85
2022/12/04 07:30:38;;;;;;;10.43;7.93;;;;;;;;;;5078119;28;20246;-87
2022/12/04 07:33:05;;;;;;;9.10;7.72;;;;;;;;;;5078294;28;20277;-87
2022/12/04 07:35:33;;;;;;;11.27;8.18;;;;;;;;;;5078671;28;20216;-86
2022/12/04 07:38:00;;;;;;;9.15;8.20;;;;;;;;;;5077603;28;20240;-86
2022/12/04 07:40:28;;;;;;;8.52;7.32;;;;;;;;;;5077885;28;20644;-85
2022/12/04 07:42:55;;;;;;;14.88;9.75;;;;;;;;;;5077928;28;20220;-86
2022/12/04 07:45:23;;;;;;;12.10;8.95;;;;;;;;;;5078071;28;20228;-86
2022/12/04 07:47:52;;;;;;;11.25;8.80;;;;;;;;;;5077984;28;20225;-87
2022/12/04 07:50:19;;;;;;;13.23;10.43;;;;;;;;;;5079136;28;20197;-85
2022/12/04 07:52:47;;;;;;;12.05;8.30;;;;;;;;;;5080252;28;20201;-86
2022/12/04 07:55:15;;;;;;;10.45;8.05;;;;;;;;;;5078847;28;20259;-85
2022/12/04 07:57:42;;;;;;;10.07;7.43;;;;;;;;;;5079531;28;20311;-85
2022/12/04 08:00:12;;;;;;;9.60;8.25;;;;;;;;;;5080071;28;20806;-84
2022/12/04 08:02:40;;;;;;;9.05;8.13;;;;;;;;;;5079805;28;20653;-85
2022/12/04 08:05:09;;;;;;;11.18;8.38;;;;;;;;;;5079648;28;20201;-83
2022/12/04 08:07:37;;;;;;;8.98;7.47;;;;;;;;;;5079342;28;20681;-83
2022/12/04 08:10:05;;;;;;;8.20;7.30;;;;;;;;;;5079567;28;20197;-85
2022/12/04 08:12:33;;;;;;;12.40;8.00;;;;;;;;;;5080123;28;20574;-84
2022/12/04 08:15:01;;;;;;;12.07;8.50;;;;;;;;;;5079677;28;20669;-83
2022/12/04 08:17:29;;;;;;;11.60;9.43;;;;;;;;;;5079651;28;20229;-85
2022/12/04 08:19:56;;;;;;;11.23;10.05;;;;;;;;;;5079260;28;20228;-85
2022/12/04 08:22:25;;;;;;;10.82;8.80;;;;;;;;;;5078590;28;20550;-85
2022/12/04 08:24:53;;;;;;;12.13;8.68;;;;;;;;;;5077209;28;20205;-85
2022/12/04 08:27:20;;;;;;;11.43;9.13;;;;;;;;;;5079519;28;20217;-86
2022/12/04 08:29:48;;;;;;;13.77;10.20;;;;;;;;;;5079508;28;20200;-86
2022/12/04 08:32:16;;;;;;;13.15;10.48;;;;;;;;;;5078944;28;20193;-87
2022/12/04 08:34:43;;;;;;;8.48;7.35;;;;;;;;;;5078177;28;20661;-85
2022/12/04 08:37:11;;;;;;;8.85;7.40;;;;;;;;;;5077226;28;20309;-86
2022/12/04 08:39:41;;;;;;;10.00;7.28;;;;;;;;;;5076663;28;20250;-85
2022/12/04 08:42:09;;;;;;;8.27;6.70;;;;;;;;;;5076665;28;20335;-86
2022/12/04 08:44:36;;;;;;;10.40;7.47;;;;;;;;;;5076219;28;20304;-84
2022/12/04 08:47:04;;;;;;;10.52;9.18;;;;;;;;;;5078133;28;20288;-85
2022/12/04 08:49:31;;;;;;;15.77;9.52;;;;;;;;;;5077088;28;20296;-86
2022/12/04 08:51:59;;;;;;;9.77;7.78;;;;;;;;;;5077582;28;20283;-86
2022/12/04 08:54:26;;;;;;;11.23;9.13;;;;;;;;;;5079297;28;20250;-86
2022/12/04 08:56:55;;;;;;;17.05;9.13;;;;;;;;;;5080932;28;20311;-84
2022/12/04 08:59:23;;;;;;;10.90;9.20;;;;;;;;;;5081727;28;20297;-85
2022/12/04 09:01:51;;;;;;;9.40;7.28;;;;;;;;;;5081195;28;20287;-85
2022/12/04 09:04:19;;;;;;;7.90;6.72;;;;;;;;;;5080592;28;20203;-86
2022/12/04 09:06:46;;;;;;;10.68;6.40;;;;;;;;;;5080483;28;20185;-86
2022/12/04 09:09:14;;;;;;;7.95;6.70;;;;;;;;;;5080617;28;20233;-86
2022/12/04 09:11:41;;;;;;;8.80;6.47;;;;;;;;;;5081840;28;20284;-85
2022/12/04 09:14:10;;;;;;;7.32;5.57;;;;;;;;;;5079170;28;20676;-85
2022/12/04 09:16:38;;;;;;;6.82;5.70;;;;;;;;;;5079045;28;20231;-87
2022/12/04 09:19:05;;;;;;;5.80;5.20;;;;;;;;;;5080262;28;20720;-86
2022/12/04 09:21:33;;;;;;;8.32;6.25;;;;;;;;;;5080266;28;20240;-85
2022/12/04 09:24:00;;;;;;;6.88;5.55;;;;;;;;;;5078866;28;20225;-87
2022/12/04 09:26:30;;;;;;;6.72;5.97;;;;;;;;;;5079215;28;20288;-87
2022/12/04 09:29:01;;;;;;;7.20;6.13;;;;;;;;;;5079332;28;20225;-86
2022/12/04 09:31:30;;;;;;;7.60;5.90;;;;;;;;;;5079145;28;20209;-86
2022/12/04 09:33:59;;;;;;;9.82;8.02;;;;;;;;;;5079488;28;20288;-86
2022/12/04 09:36:27;;;;;;;9.45;8.23;;;;;;;;;;5078728;28;20228;-87
2022/12/04 09:38:55;;;;;;;6.90;6.18;;;;;;;;;;5079276;28;20232;-87
2022/12/04 09:42:08;;;;;;;8.88;6.32;;;;;;;;;;5078620;28;20264;-87
2022/12/04 09:44:39;;;;;;;8.60;7.70;;;;;;;;;;5078617;28;20291;-86
2022/12/04 09:47:20;;;;;;;11.70;8.27;;;;;;;;;;5078833;28;20231;-86
2022/12/04 09:49:51;;;;;;;11.95;7.68;;;;;;;;;;5078866;28;20272;-87
2022/12/04 09:52:31;;;;;;;8.32;7.43;;;;;;;;;;5077792;28;20275;-87
2022/12/04 09:55:00;;;;;;;10.18;8.18;;;;;;;;;;5078010;28;20272;-87
2022/12/04 09:57:35;;;;;;;8.85;6.22;;;;;;;;;;5077971;28;20250;-87
2022/12/04 10:00:05;;;;;;;10.00;7.45;;;;;;;;;;5078961;28;20189;-87
2022/12/04 10:02:39;;;;;;;7.97;7.13;;;;;;;;;;5079285;28;20205;-88
2022/12/04 10:05:14;;;;;;;9.13;7.68;;;;;;;;;;5078222;28;20205;-86
2022/12/04 10:07:49;;;;;;;9.38;8.07;;;;;;;;;;5078400;28;20278;-84
2022/12/04 10:10:23;;;;;;;8.48;6.82;;;;;;;;;;5078989;28;20215;-88
2022/12/04 10:12:56;;;;;;;8.45;7.57;;;;;;;;;;5080183;28;20547;-87
2022/12/04 10:15:32;;;;;;;7.63;5.82;;;;;;;;;;5079119;28;20205;-85
2022/12/04 10:18:16;;;;;;;6.07;5.47;;;;;;;;;;5077963;28;20228;-87
2022/12/04 10:21:00;;;;;;;10.88;8.82;;;;;;;;;;5078405;28;20189;-88
2022/12/04 10:23:39;;;;;;;12.20;8.40;;;;;;;;;;5077987;28;20225;-87
2022/12/04 10:26:14;;;;;;;9.63;7.57;;;;;;;;;;5078170;28;20243;-87
2022/12/04 10:28:45;;;;;;;11.55;8.65;;;;;;;;;;5077174;28;20317;-86
2022/12/04 10:31:15;;;;;;;10.10;7.38;;;;;;;;;;5078699;28;20630;-87
2022/12/04 10:33:47;;;;;;;13.65;9.10;;;;;;;;;;5079470;28;20368;-86
2022/12/04 10:36:18;;;;;;;12.60;9.48;;;;;;;;;;5078574;28;20614;-86
2022/12/04 10:38:49;;;;;;;11.93;9.27;;;;;;;;;;5079982;28;20225;-88
2022/12/04 10:41:24;;;;;;;10.68;8.93;;;;;;;;;;5081139;28;20196;-86
2022/12/04 10:43:52;;;;;;;11.57;8.63;;;;;;;;;;5081795;28;20718;-88
2022/12/04 10:46:24;;;;;;;14.43;10.57;;;;;;;;;;5081825;28;20201;-87
2022/12/04 10:48:56;;;;;;;14.80;9.90;;;;;;;;;;5090214;28;20224;-85
2022/12/04 10:51:24;;;;;;;11.77;9.05;;;;;;;;;;5083027;28;20267;-85
2022/12/04 10:53:53;;;;;;;14.00;10.05;;;;;;;;;;5082448;28;20240;-83
2022/12/04 10:56:23;;;;;;;8.90;7.50;;;;;;;;;;5082538;28;20251;-85
2022/12/04 10:59:01;;;;;;;9.82;8.23;;;;;;;;;;5082889;28;20339;-84
2022/12/04 11:01:30;;;;;;;9.73;7.70;;;;;;;;;;5082191;28;20268;-84
2022/12/04 11:04:04;;;;;;;17.33;12.40;;;;;;;;;;5082841;28;20220;-83
2022/12/04 11:06:31;;;;;;;12.77;9.60;;;;;;;;;;5080687;28;20330;-84
2022/12/04 11:09:01;;;;;;;9.77;8.30;;;;;;;;;;5079694;28;20701;-84
2022/12/04 11:11:31;;;;;;;10.77;8.15;;;;;;;;;;5079441;28;20684;-84
2022/12/04 11:14:05;;;;;;;9.77;8.48;;;;;;;;;;5079554;28;20272;-84
2022/12/04 11:16:37;;;;;;;9.40;7.68;;;;;;;;;;5078147;28;20205;-84
2022/12/04 11:19:21;;;;;;;8.15;7.35;;;;;;;;;;5078436;28;20229;-85
2022/12/04 11:21:49;;;;;;;7.85;6.68;;;;;;;;;;5079563;28;20620;-83
2022/12/04 11:24:23;;;;;;;9.63;7.78;;;;;;;;;;5079462;28;20264;-84
2022/12/04 11:26:51;;;;;;;12.90;9.18;;;;;;;;;;5079482;28;20189;-84
2022/12/04 11:29:20;;;;;;;10.48;8.43;;;;;;;;;;5079493;28;20220;-84
2022/12/04 11:31:53;;;;;;;10.27;8.73;;;;;;;;;;5080381;28;20618;-85
2022/12/04 11:34:25;;;;;;;13.75;8.98;;;;;;;;;;5080239;28;20205;-84
2022/12/04 11:36:55;;;;;;;9.27;7.72;;;;;;;;;;5080048;28;20646;-85
2022/12/04 11:39:31;;;;;;;12.80;9.68;;;;;;;;;;5078959;28;20212;-85
2022/12/04 11:42:03;;;;;;;14.57;11.13;;;;;;;;;;5080375;28;20202;-85
2022/12/04 11:44:33;;;;;;;8.95;8.02;;;;;;;;;;5079177;28;20211;-85
2022/12/04 11:47:04;;;;;;;9.73;8.23;;;;;;;;;;5081215;28;20279;-84
2022/12/04 11:49:34;;;;;;;10.20;9.07;;;;;;;;;;5098170;28;20203;-85
2022/12/04 11:52:17;;;;;;;9.75;7.55;;;;;;;;;;5097947;28;20213;-84
2022/12/04 11:54:57;;;;;;;10.60;8.82;;;;;;;;;;5097864;28;20199;-85
2022/12/04 11:57:30;;;;;;;9.48;8.48;;;;;;;;;;5098576;28;20623;-85
2022/12/04 12:00:10;;;;;;;13.65;11.07;;;;;;;;;;5098428;28;20185;-85
2022/12/04 12:02:54;;;;;;;12.50;10.25;;;;;;;;;;5098456;28;20551;-85
2022/12/04 12:06:13;;;;;;;8.55;7.35;;;;;;;;;;5098839;28;20248;-84
2022/12/04 12:09:03;;;;;;;8.52;7.55;;;;;;;;;;5074910;28;20733;-83
2022/12/04 12:11:36;;;;;;;9.95;7.72;;;;;;;;;;5078310;28;20654;-84
2022/12/04 12:14:09;;;;;;;12.48;11.05;;;;;;;;;;5077841;28;20215;-83
2022/12/04 12:16:48;;;;;;;11.80;9.07;;;;;;;;;;5077987;28;20200;-84
2022/12/04 12:20:05;;;;;;;16.15;11.15;;;;;;;;;;5077330;28;20225;-83
2022/12/04 12:22:48;;;;;;;9.68;7.72;;;;;;;;;;5076269;28;20280;-84
2022/12/04 12:25:20;;;;;;;11.90;9.43;;;;;;;;;;5076043;28;20269;-86
2022/12/04 12:28:02;;;;;;;11.18;9.27;;;;;;;;;;5077044;28;20248;-85
2022/12/04 12:30:34;;;;;;;12.52;7.88;;;;;;;;;;5080327;28;20183;-86
2022/12/04 12:33:10;;;;;;;11.05;8.63;;;;;;;;;;5081375;28;20543;-85
2022/12/04 12:35:43;;;;;;;12.65;9.80;;;;;;;;;;5080391;28;20239;-86
2022/12/04 12:38:17;;;;;;;11.25;8.45;;;;;;;;;;5080681;28;20658;-85
2022/12/04 12:40:47;;;;;;;10.50;8.63;;;;;;;;;;5081607;28;20204;-85
2022/12/04 12:43:22;;;;;;;10.23;8.70;;;;;;;;;;5081229;28;20266;-86
2022/12/04 12:45:54;;;;;;;11.43;10.25;;;;;;;;;;5080621;28;20223;-86
2022/12/04 12:48:28;;;;;;;14.88;9.23;;;;;;;;;;5080945;28;20813;-85
2022/12/04 12:51:01;;;;;;;14.85;10.98;;;;;;;;;;5075846;28;20606;-86
2022/12/04 12:53:37;;;;;;;15.40;11.15;;;;;;;;;;5087503;28;20228;-84
2022/12/04 12:56:06;;;;;;;15.30;11.52;;;;;;;;;;5080732;28;20195;-84
2022/12/04 12:58:38;;;;;;;10.65;8.63;;;;;;;;;;5079766;28;20311;-84
2022/12/04 13:01:11;;;;;;;13.07;10.10;;;;;;;;;;5079675;28;20306;-85
2022/12/04 13:03:45;;;;;;;11.05;8.77;;;;;;;;;;5078453;28;20282;-85
2022/12/04 13:06:17;;;;;;;9.60;8.20;;;;;;;;;;5078210;28;20185;-85
2022/12/04 13:08:56;;;;;;;13.00;9.82;;;;;;;;;;5078051;28;20282;-82
2022/12/04 13:11:25;;;;;;;12.15;9.15;;;;;;;;;;5077033;28;20287;-82
2022/12/04 13:13:56;;;;;;;12.65;9.90;;;;;;;;;;5077628;28;20292;-84
2022/12/04 13:16:26;;;;;;;11.77;10.13;;;;;;;;;;5078228;28;20193;-85
2022/12/04 13:19:02;;;;;;;12.43;9.50;;;;;;;;;;5081186;28;20312;-85
2022/12/04 13:21:33;;;;;;;8.80;7.10;;;;;;;;;;5081894;28;20205;-84
2022/12/04 13:24:37;;;;;;;7.93;7.10;;;;;;;;;;5081908;28;20181;-85
2022/12/04 13:27:09;;;;;;;9.32;8.25;;;;;;;;;;5081737;28;20652;-85
2022/12/04 13:29:50;;;;;;;10.65;9.45;;;;;;;;;;5083059;28;20658;-84
2022/12/04 13:33:10;;;;;;;7.97;7.18;;;;;;;;;;5083075;28;20236;-85
2022/12/04 13:36:15;;;;;;;12.25;10.75;;;;;;;;;;5020466;28;20259;-84
2022/12/04 13:39:00;;;;;;;9.68;7.35;;;;;;;;;;4988610;28;20265;-84
2022/12/04 13:41:29;;;;;;;8.82;7.72;;;;;;;;;;5071932;28;20244;-84
2022/12/04 13:43:57;;;;;;;12.25;10.05;;;;;;;;;;5083582;28;20197;-84
2022/12/04 13:46:30;;;;;;;12.88;9.20;;;;;;;;;;5084234;28;20205;-84
2022/12/04 13:49:10;;;;;;;14.63;11.30;;;;;;;;;;5083956;28;20698;-84
2022/12/04 13:51:39;;;;;;;11.68;9.63;;;;;;;;;;5082813;28;20590;-85
2022/12/04 13:54:29;;;;;;;9.85;8.85;;;;;;;;;;5083247;28;20237;-84
2022/12/04 13:57:17;;;;;;;12.73;10.18;;;;;;;;;;5084543;28;20185;-85
2022/12/04 13:59:46;;;;;;;14.20;11.32;;;;;;;;;;5083141;28;20311;-86
2022/12/04 14:02:27;;;;;;;15.25;9.63;;;;;;;;;;5083393;28;20217;-84
2022/12/04 14:04:58;;;;;;;15.45;11.05;;;;;;;;;;5083163;28;20290;-86
2022/12/04 14:07:30;;;;;;;14.95;11.73;;;;;;;;;;5083975;28;20681;-85
2022/12/04 14:10:00;;;;;;;13.77;11.15;;;;;;;;;;5083848;28;20228;-85
2022/12/04 14:12:32;;;;;;;13.00;10.38;;;;;;;;;;5084270;28;20295;-85
2022/12/04 14:15:02;;;;;;;12.43;9.55;;;;;;;;;;5084470;28;20262;-85
2022/12/04 14:17:32;;;;;;;13.45;11.27;;;;;;;;;;5084637;28;20232;-86
2022/12/04 14:20:02;;;;;;;13.20;11.18;;;;;;;;;;5084046;28;20232;-84
2022/12/04 14:22:42;;;;;;;14.93;11.32;;;;;;;;;;5083933;28;20823;-85
2022/12/04 14:25:43;;;;;;;15.80;11.35;;;;;;;;;;5083978;28;20230;-86
2022/12/04 14:28:41;;;;;;;15.95;10.93;;;;;;;;;;5075575;28;20221;-85
2022/12/04 14:31:30;;;;;;;14.75;10.65;;;;;;;;;;5083252;28;20185;-86
2022/12/04 14:34:01;;;;;;;10.20;8.93;;;;;;;;;;5083095;28;20249;-86
2022/12/04 14:36:31;;;;;;;9.73;8.68;;;;;;;;;;5082365;28;20268;-85
2022/12/04 14:39:12;;;;;;;13.45;10.80;;;;;;;;;;5080713;28;20232;-84
2022/12/04 14:41:40;;;;;;;12.10;9.05;;;;;;;;;;5061792;28;20236;-84
2022/12/04 14:44:24;;;;;;;9.70;8.68;;;;;;;;;;5062276;28;20221;-85
2022/12/04 14:46:52;;;;;;;10.40;8.70;;;;;;;;;;5061443;28;20245;-84
2022/12/04 14:49:31;;;;;;;12.15;9.07;;;;;;;;;;5061536;28;20284;-85
2022/12/04 14:52:05;;;;;;;8.40;7.15;;;;;;;;;;5075242;28;20211;-84
2022/12/04 14:54:39;;;;;;;9.10;7.65;;;;;;;;;;5081401;28;20193;-83
2022/12/04 14:57:29;;;;;;;10.65;9.18;;;;;;;;;;5096544;28;20228;-84
2022/12/04 14:59:59;;;;;;;12.25;8.48;;;;;;;;;;5100848;28;20211;-84
2022/12/04 15:02:34;;;;;;;7.53;6.72;;;;;;;;;;5099463;28;20200;-84
2022/12/04 15:05:03;;;;;;;7.85;6.97;;;;;;;;;;5081103;28;20200;-84
2022/12/04 15:07:32;;;;;;;14.88;10.02;;;;;;;;;;5080459;28;20406;-85
2022/12/04 15:12:51;;;;;;;11.65;8.43;;;;;;;;;;5060098;28;20236;-84